Track Шупикова Дарья

Time Latitude Longitude Accuracy (66% radius in meters) Altitude (meters) Speed (km/hour) Bearing (degrees) Battery (%) GPS flag
08:31:11 60.371008 29.556345 8 81 0 11.871747016907 80 1 delete
08:31:00 60.370974 29.556323 12 77 0 238.49154663086 80 1 delete
08:30:59 60.370978 29.556320 12 73 1.0551097393036 238.49154663086 80 1 delete
08:30:47 60.371012 29.556313 6 78 0 58.426498413086 80 1 delete
08:30:34 60.371006 29.556302 6 91 0 58.426498413086 80 1 delete
08:30:21 60.371021 29.556276 8 86 0 195.03521728516 80 1 delete
08:30:10 60.371029 29.556269 6 83 0 162.09707641602 80 1 delete
08:29:58 60.371031 29.556326 6 77 0 162.09707641602 80 1 delete
08:29:38 60.371020 29.556305 6 77 0 26.005386352539 80 1 delete
08:29:34 60.371011 29.556303 6 74 0 26.005386352539 80 1 delete
08:29:21 60.371002 29.556293 6 77 0 26.005386352539 80 1 delete
08:29:09 60.370986 29.556280 8 74 0 26.005386352539 80 1 delete
08:28:56 60.370995 29.556281 6 73 0 189.99183654785 80 1 delete
08:28:43 60.370993 29.556274 6 80 0 210.9093170166 80 1 delete
08:28:31 60.370976 29.556303 6 79 0 210.9093170166 80 1 delete
08:28:27 60.370974 29.556295 6 80 0.32986968755722 210.9093170166 80 1 delete
08:28:18 60.371017 29.556306 4 77 0 191.05619812012 80 1 delete
08:28:06 60.371018 29.556313 6 75 0 191.05619812012 80 1 delete
08:27:53 60.370988 29.556296 6 81 0 191.05619812012 80 1 delete
08:27:41 60.370991 29.556304 6 81 0 191.05619812012 80 1 delete
08:27:28 60.371004 29.556327 6 78 0 191.05619812012 80 1 delete
08:27:16 60.371011 29.556407 6 75 0 191.05619812012 80 1 delete
08:27:04 60.371013 29.556344 6 76 0 191.05619812012 80 1 delete
08:27:03 60.371016 29.556339 4 76 0 191.05619812012 80 1 delete
08:26:51 60.371016 29.556283 4 83 0 191.05619812012 80 1 delete
08:26:39 60.371028 29.556255 6 83 0 41.66674041748 80 1 delete
08:26:27 60.371052 29.556197 4 82 0 41.66674041748 80 1 delete
08:26:15 60.371052 29.556231 6 81 0 41.66674041748 80 1 delete
08:26:09 60.371039 29.556253 4 81 0 41.66674041748 80 1 delete
08:26:03 60.371022 29.556273 4 83 0 41.66674041748 80 1 delete
08:25:50 60.371014 29.556299 6 83 0 41.66674041748 80 1 delete
08:25:38 60.371011 29.556309 4 84 0 41.66674041748 80 1 delete
08:25:32 60.371016 29.556331 4 84 0 41.66674041748 80 1 delete
08:25:25 60.371055 29.556439 6 75 0 41.66674041748 80 1 delete
08:25:13 60.371054 29.556434 6 76 0 41.66674041748 80 1 delete
08:25:08 60.371040 29.556415 6 74 0 41.66674041748 80 1 delete
08:25:00 60.371017 29.556370 6 74 0 41.66674041748 80 1 delete
08:24:47 60.371012 29.556335 6 80 0 41.66674041748 80 1 delete
08:24:34 60.371022 29.556326 6 80 0 41.66674041748 80 1 delete
08:24:33 60.371025 29.556328 6 82 0 41.66674041748 80 1 delete
08:24:21 60.371045 29.556339 6 76 0 22.712671279907 80 1 delete
08:24:09 60.371047 29.556319 6 84 0 22.712671279907 80 1 delete
08:23:56 60.371041 29.556293 6 81 0 22.712671279907 80 1 delete
08:23:42 60.371057 29.556361 6 73 0 114.28266906738 80 1 delete
08:23:30 60.371065 29.556315 6 84 0 114.28266906738 80 1 delete
08:23:19 60.371069 29.556292 4 78 0 114.28266906738 80 1 delete
08:23:18 60.371065 29.556291 4 78 0 114.28266906738 80 1 delete
08:23:05 60.371029 29.556245 4 80 0 114.28266906738 80 1 delete
08:22:53 60.371007 29.556262 4 83 0 114.28266906738 80 1 delete
08:22:41 60.370999 29.556269 4 80 0 125.29818725586 80 1 delete